createdAt,value
2022-09-14T00:02:25.409Z,1.00
2022-09-14T00:04:55.399Z,1.00
2022-09-14T00:07:25.151Z,1.00
2022-09-14T00:09:56.312Z,1.00
2022-09-14T00:12:26.090Z,1.00
2022-09-14T00:14:56.075Z,1.00
2022-09-14T00:17:28.551Z,1.00
2022-09-14T00:19:58.583Z,1.00
2022-09-14T00:22:28.561Z,1.00
2022-09-14T00:24:58.317Z,1.00
2022-09-14T00:27:28.220Z,1.00
2022-09-14T00:29:58.602Z,1.00
2022-09-14T00:32:30.958Z,1.00
2022-09-14T00:35:01.515Z,1.00
2022-09-14T00:37:31.291Z,1.00
2022-09-14T00:40:01.463Z,1.00
2022-09-14T00:42:31.282Z,1.00
2022-09-14T00:45:06.355Z,1.00
2022-09-14T00:47:38.828Z,1.00
2022-09-14T00:50:09.972Z,1.00
2022-09-14T00:52:43.496Z,1.00
2022-09-14T00:55:16.852Z,1.00
2022-09-14T00:57:49.621Z,1.00
2022-09-14T01:00:31.573Z,1.00
2022-09-14T01:03:04.037Z,1.00
2022-09-14T01:05:47.212Z,1.00
2022-09-14T01:08:40.673Z,1.00
2022-09-14T01:11:35.658Z,1.00
2022-09-14T01:14:13.957Z,1.00
2022-09-14T01:16:52.373Z,1.00
2022-09-14T01:19:32.953Z,1.00
2022-09-14T01:22:12.209Z,1.00
2022-09-14T01:24:49.096Z,1.00
2022-09-14T01:27:34.835Z,1.00
2022-09-14T01:30:12.509Z,1.00
2022-09-14T01:32:51.347Z,1.00
2022-09-14T01:35:25.797Z,1.00
2022-09-14T01:38:02.450Z,1.00
2022-09-14T01:40:36.644Z,1.00
2022-09-14T01:43:13.744Z,1.00
2022-09-14T01:45:49.479Z,1.00
2022-09-14T01:48:23.984Z,1.00
2022-09-14T01:53:53.052Z,1.00
2022-09-14T01:56:26.806Z,1.00
2022-09-14T01:59:05.165Z,1.00
2022-09-14T02:01:40.725Z,1.00
2022-09-14T02:04:17.768Z,1.00
2022-09-14T02:06:50.364Z,1.00
2022-09-14T02:09:26.802Z,1.00
2022-09-14T02:12:00.824Z,1.00
2022-09-14T02:14:34.879Z,1.00
2022-09-14T02:17:05.190Z,1.00
2022-09-14T02:19:41.153Z,1.00
2022-09-14T02:22:11.224Z,1.00
2022-09-14T02:24:42.717Z,1.00
2022-09-14T02:27:12.605Z,1.00
2022-09-14T02:29:45.929Z,1.00
2022-09-14T02:32:25.183Z,1.00
2022-09-14T02:35:06.285Z,1.00
2022-09-14T02:37:43.770Z,1.00
2022-09-14T02:40:21.217Z,1.00
2022-09-14T02:43:02.691Z,1.00
2022-09-14T02:45:43.037Z,1.00
2022-09-14T02:48:20.559Z,1.00
2022-09-14T02:50:54.762Z,1.00
2022-09-14T02:53:31.999Z,4.70
2022-09-14T02:56:04.928Z,3.60
2022-09-14T02:58:38.783Z,8.40
2022-09-14T03:01:14.421Z,6.40
2022-09-14T03:03:44.463Z,7.10
2022-09-14T03:06:15.075Z,9.50
2022-09-14T03:08:48.036Z,18.90
2022-09-14T03:11:18.651Z,14.50
2022-09-14T03:13:48.482Z,6.00
2022-09-14T03:16:23.061Z,8.00
2022-09-14T03:18:53.810Z,1.80
2022-09-14T03:21:23.901Z,1.00
2022-09-14T03:23:55.894Z,1.00
2022-09-14T03:26:27.433Z,1.00
2022-09-14T03:29:00.025Z,1.00
2022-09-14T03:31:32.435Z,1.00
2022-09-14T03:34:04.820Z,2.40
2022-09-14T03:36:35.237Z,1.00
2022-09-14T03:39:07.983Z,1.00
2022-09-14T03:41:37.740Z,1.00
2022-09-14T03:44:08.265Z,1.00
2022-09-14T03:46:41.044Z,1.00
2022-09-14T03:49:11.638Z,1.00
2022-09-14T03:51:41.546Z,1.00
2022-09-14T03:54:11.709Z,1.00
2022-09-14T03:56:41.476Z,1.00
2022-09-14T03:59:12.972Z,1.00
2022-09-14T04:01:45.349Z,1.00
2022-09-14T04:04:15.754Z,1.00
2022-09-14T04:06:45.517Z,1.00
2022-09-14T04:09:15.624Z,1.00
2022-09-14T04:11:45.384Z,1.00
2022-09-14T04:14:17.247Z,1.00
2022-09-14T04:16:49.630Z,1.00
2022-09-14T04:19:19.885Z,1.40
2022-09-14T04:21:49.659Z,1.10
2022-09-14T04:24:20.669Z,1.00
2022-09-14T04:26:50.714Z,1.00
2022-09-14T04:29:21.642Z,1.00
2022-09-14T04:31:54.033Z,1.00
2022-09-14T04:34:24.463Z,1.00
2022-09-14T04:36:54.577Z,1.00
2022-09-14T04:39:25.310Z,1.00
2022-09-14T04:41:55.170Z,1.00
2022-09-14T04:44:25.429Z,1.00
2022-09-14T04:46:57.829Z,1.00
2022-09-14T04:49:28.531Z,1.00
2022-09-14T04:51:58.273Z,1.00
2022-09-14T04:54:28.393Z,1.00
2022-09-14T04:56:58.155Z,1.00
2022-09-14T04:59:29.083Z,1.00
2022-09-14T05:02:01.535Z,1.00
2022-09-14T05:04:31.537Z,1.00
2022-09-14T05:07:01.305Z,1.00
2022-09-14T05:09:31.551Z,1.00
2022-09-14T05:12:01.346Z,1.00
2022-09-14T05:14:31.526Z,1.00
2022-09-14T05:17:04.585Z,1.00
2022-09-14T05:19:35.284Z,1.00
2022-09-14T05:22:05.034Z,1.00
2022-09-14T05:24:35.762Z,1.00
2022-09-14T05:27:05.551Z,1.00
2022-09-14T05:29:36.562Z,1.00
2022-09-14T05:32:09.365Z,1.00
2022-09-14T05:34:39.889Z,1.00
2022-09-14T05:37:09.686Z,1.00
2022-09-14T05:39:40.218Z,1.00
2022-09-14T05:42:10.135Z,1.00
2022-09-14T05:44:40.696Z,1.00
2022-09-14T05:47:13.285Z,1.00
2022-09-14T05:49:43.787Z,1.00
2022-09-14T05:52:13.566Z,1.00
2022-09-14T05:54:44.012Z,1.00
2022-09-14T05:57:13.967Z,1.00
2022-09-14T05:59:44.395Z,1.00
2022-09-14T06:02:18.239Z,1.00
2022-09-14T06:04:49.949Z,1.00
2022-09-14T06:07:19.805Z,1.00
2022-09-14T06:09:52.678Z,1.00
2022-09-14T06:12:22.479Z,1.00
2022-09-14T06:14:52.976Z,1.00
2022-09-14T06:17:25.398Z,1.00
2022-09-14T06:19:55.571Z,1.00
2022-09-14T06:22:25.435Z,1.00
2022-09-14T06:24:55.707Z,1.00
2022-09-14T06:27:25.472Z,1.00
2022-09-14T06:29:55.825Z,1.00
2022-09-14T06:32:33.476Z,1.00
2022-09-14T06:35:05.144Z,1.00
2022-09-14T06:37:36.215Z,1.00
2022-09-14T06:40:07.921Z,1.00
2022-09-14T06:42:37.819Z,1.00
2022-09-14T06:45:09.630Z,1.00
2022-09-14T06:47:42.084Z,1.00
2022-09-14T06:50:12.705Z,1.00
2022-09-14T06:52:42.700Z,1.00
2022-09-14T06:55:13.156Z,1.00
2022-09-14T06:57:43.224Z,1.00
2022-09-14T07:00:15.031Z,1.00
2022-09-14T07:02:48.305Z,1.00
2022-09-14T07:05:22.662Z,1.00
2022-09-14T07:07:54.016Z,1.00
2022-09-14T07:10:28.485Z,1.00
2022-09-14T07:13:01.807Z,1.00
2022-09-14T07:15:32.148Z,1.00
2022-09-14T07:18:05.052Z,1.00
2022-09-14T07:20:36.999Z,1.00
2022-09-14T07:23:06.803Z,1.00
2022-09-14T07:25:37.397Z,1.00
2022-09-14T07:28:07.245Z,1.00
2022-09-14T07:30:39.059Z,1.00
2022-09-14T07:33:11.534Z,1.00
2022-09-14T07:35:41.594Z,1.00
2022-09-14T07:38:11.401Z,1.00
2022-09-14T07:40:41.618Z,1.00
2022-09-14T07:43:11.391Z,1.00
2022-09-14T07:45:42.810Z,1.00
2022-09-14T07:48:15.226Z,1.00
2022-09-14T07:50:45.323Z,1.00
2022-09-14T07:53:15.096Z,1.00
2022-09-14T07:55:45.311Z,1.00
2022-09-14T07:58:15.110Z,1.00
2022-09-14T08:00:46.137Z,1.00
2022-09-14T08:03:18.800Z,1.00
2022-09-14T08:05:49.283Z,1.00
2022-09-14T08:08:19.049Z,1.00
2022-09-14T08:10:49.051Z,1.00
2022-09-14T08:13:18.828Z,1.00
2022-09-14T08:15:49.225Z,1.00
2022-09-14T08:18:21.600Z,1.00
2022-09-14T08:20:51.703Z,1.00
2022-09-14T08:23:21.455Z,1.00
2022-09-14T08:25:53.245Z,1.00
2022-09-14T08:28:23.114Z,1.00
2022-09-14T08:30:52.956Z,1.00
2022-09-14T08:33:25.271Z,1.00
2022-09-14T08:35:58.201Z,1.00
2022-09-14T08:38:28.694Z,1.00
2022-09-14T08:41:00.218Z,1.00
2022-09-14T08:43:30.477Z,1.00
2022-09-14T08:46:06.666Z,1.00
2022-09-14T08:48:43.440Z,1.00
2022-09-14T08:51:13.774Z,1.00
2022-09-14T08:53:45.191Z,1.00
2022-09-14T08:56:20.094Z,1.00
2022-09-14T08:59:01.835Z,1.00
2022-09-14T09:01:41.997Z,1.00
2022-09-14T09:04:32.011Z,1.00
2022-09-14T09:07:07.031Z,1.00
2022-09-14T09:09:45.608Z,1.00
2022-09-14T09:12:18.594Z,1.00
2022-09-14T09:14:54.552Z,1.00
2022-09-14T09:17:29.981Z,1.00
2022-09-14T09:20:09.269Z,1.00
2022-09-14T09:22:42.050Z,1.00
2022-09-14T09:25:19.681Z,1.00
2022-09-14T09:27:50.459Z,1.00
2022-09-14T09:30:20.432Z,1.00
2022-09-14T09:32:50.287Z,1.00
2022-09-14T09:35:49.784Z,1.00
2022-09-14T09:38:25.987Z,1.00
2022-09-14T09:40:59.637Z,1.00
2022-09-14T09:43:48.338Z,1.00
2022-09-14T09:46:20.416Z,1.00
2022-09-14T09:48:50.750Z,1.00
2022-09-14T09:51:31.834Z,1.00
2022-09-14T09:54:08.536Z,1.00
2022-09-14T09:56:41.821Z,1.00
2022-09-14T09:59:26.445Z,1.00
2022-09-14T10:02:00.578Z,1.00
2022-09-14T10:04:33.079Z,1.00
2022-09-14T10:07:05.768Z,1.00
2022-09-14T10:09:36.919Z,1.00
2022-09-14T10:12:08.224Z,1.00
2022-09-14T10:14:40.960Z,1.00
2022-09-14T10:17:20.693Z,1.00
2022-09-14T10:19:52.685Z,1.00
2022-09-14T10:22:29.914Z,1.00
2022-09-14T10:25:02.884Z,1.00
2022-09-14T10:27:42.555Z,1.00
2022-09-14T10:30:17.590Z,1.00
2022-09-14T10:32:53.190Z,1.00
2022-09-14T10:35:26.619Z,1.00
2022-09-14T10:38:11.096Z,1.00
2022-09-14T10:40:46.340Z,1.00
2022-09-14T10:43:19.715Z,1.00
2022-09-14T10:45:53.964Z,1.00
2022-09-14T10:48:54.733Z,1.00
2022-09-14T10:51:32.963Z,1.00
2022-09-14T10:54:17.538Z,1.00
2022-09-14T10:57:03.648Z,1.00
2022-09-14T10:59:42.066Z,1.00
2022-09-14T11:02:45.243Z,1.00
2022-09-14T11:05:21.899Z,1.00
2022-09-14T11:08:02.329Z,1.00
2022-09-14T11:10:41.419Z,1.00
2022-09-14T11:13:38.019Z,1.00
2022-09-14T11:16:21.317Z,1.00
2022-09-14T11:19:00.445Z,1.00
2022-09-14T11:21:42.958Z,1.00
2022-09-14T11:24:20.797Z,1.00
2022-09-14T11:27:02.736Z,1.00
2022-09-14T11:29:37.585Z,1.00
2022-09-14T11:32:27.542Z,1.00
2022-09-14T11:35:04.201Z,1.00
2022-09-14T11:37:40.796Z,1.00
2022-09-14T11:40:21.489Z,1.00
2022-09-14T11:43:01.133Z,1.00
2022-09-14T11:45:35.001Z,1.00
2022-09-14T11:48:41.217Z,1.00
2022-09-14T11:51:09.246Z,1.00
2022-09-14T11:53:39.483Z,1.00
2022-09-14T11:56:25.524Z,1.00
2022-09-14T11:59:00.899Z,1.00
2022-09-14T12:01:35.776Z,1.00
2022-09-14T12:04:12.314Z,1.00
2022-09-14T12:06:57.737Z,1.00
2022-09-14T12:09:53.995Z,1.00
2022-09-14T12:12:41.555Z,1.00
2022-09-14T12:15:36.231Z,1.00
2022-09-14T12:18:25.129Z,1.00
2022-09-14T12:21:09.961Z,1.00
2022-09-14T12:23:52.256Z,1.00
2022-09-14T12:26:41.360Z,1.00
2022-09-14T12:29:32.117Z,1.00
2022-09-14T12:32:23.758Z,1.00
2022-09-14T12:35:39.266Z,1.00
2022-09-14T12:38:43.852Z,1.00
2022-09-14T12:41:50.267Z,1.00
2022-09-14T12:44:43.617Z,1.00
2022-09-14T12:47:52.206Z,1.00
2022-09-14T12:50:24.098Z,1.00
2022-09-14T12:53:18.555Z,1.00
2022-09-14T12:56:05.138Z,1.00
2022-09-14T12:58:59.939Z,1.00
2022-09-14T13:01:38.948Z,1.00
2022-09-14T13:04:16.863Z,1.00
2022-09-14T13:06:49.699Z,1.00
2022-09-14T13:09:23.356Z,1.00
2022-09-14T13:11:58.762Z,1.00
2022-09-14T13:14:32.911Z,1.00
2022-09-14T13:17:05.162Z,1.00
2022-09-14T13:19:38.215Z,1.00
2022-09-14T13:22:20.953Z,1.00
2022-09-14T13:24:52.497Z,1.00
2022-09-14T13:27:27.152Z,1.00
2022-09-14T13:30:04.747Z,1.00
2022-09-14T13:32:38.567Z,1.00
2022-09-14T13:35:21.090Z,1.00
2022-09-14T13:37:51.825Z,1.00
2022-09-14T13:40:28.376Z,1.00
2022-09-14T13:42:58.830Z,1.00
2022-09-14T13:45:29.770Z,1.00
2022-09-14T13:47:59.898Z,1.00
2022-09-14T13:50:32.709Z,1.00
2022-09-14T13:53:04.068Z,1.00
2022-09-14T13:55:47.258Z,1.00
2022-09-14T13:58:23.631Z,1.00
2022-09-14T14:01:00.803Z,1.00
2022-09-14T14:03:37.358Z,1.00
2022-09-14T14:06:23.947Z,1.00
2022-09-14T14:09:00.094Z,1.00
2022-09-14T14:11:41.239Z,1.00
2022-09-14T14:14:28.843Z,1.00
2022-09-14T14:17:25.359Z,1.00
2022-09-14T14:19:57.916Z,1.00
2022-09-14T14:22:33.173Z,1.00
2022-09-14T14:25:20.167Z,1.00
2022-09-14T14:27:51.036Z,1.00
2022-09-14T14:30:23.618Z,1.00
2022-09-14T14:32:54.829Z,1.00
2022-09-14T14:35:27.957Z,1.00
2022-09-14T14:38:01.129Z,1.00
2022-09-14T14:40:32.588Z,1.00
2022-09-14T14:43:04.396Z,1.00
2022-09-14T14:45:36.677Z,1.00
2022-09-14T14:48:06.833Z,1.00
2022-09-14T14:50:37.828Z,1.00
2022-09-14T14:53:10.179Z,1.00
2022-09-14T14:55:41.414Z,1.00
2022-09-14T14:58:18.792Z,1.00
2022-09-14T15:00:49.989Z,1.00
2022-09-14T15:03:20.391Z,1.00
2022-09-14T15:05:52.375Z,1.00
2022-09-14T15:08:24.729Z,1.00
2022-09-14T15:10:59.327Z,1.00
2022-09-14T15:13:29.162Z,1.00
2022-09-14T15:16:00.715Z,1.00
2022-09-14T15:18:30.499Z,1.00
2022-09-14T15:21:00.477Z,1.00
2022-09-14T15:23:32.934Z,1.00
2022-09-14T15:26:03.702Z,1.00
2022-09-14T15:28:35.918Z,1.70
2022-09-14T15:31:07.953Z,1.00
2022-09-14T15:33:37.998Z,1.00
2022-09-14T15:36:08.665Z,1.00
2022-09-14T15:38:41.150Z,2.50
2022-09-14T15:41:14.774Z,11.80
2022-09-14T15:43:47.716Z,14.80
2022-09-14T15:46:17.809Z,17.10
2022-09-14T15:48:47.654Z,25.00
2022-09-14T15:51:19.722Z,29.50
2022-09-14T15:53:52.631Z,35.20
2022-09-14T15:56:22.703Z,41.30
2022-09-14T16:02:26.458Z,37.40
2022-09-14T16:04:56.259Z,29.60
2022-09-14T16:07:26.404Z,25.70
2022-09-14T16:09:59.177Z,26.10
2022-09-14T16:12:29.701Z,26.10
2022-09-14T16:15:18.331Z,25.10
2022-09-14T16:17:53.066Z,19.60
2022-09-14T16:20:26.949Z,22.40
2022-09-14T16:23:09.097Z,19.40
2022-09-14T16:25:53.846Z,25.70
2022-09-14T16:28:40.077Z,29.50
2022-09-14T16:31:30.421Z,39.60
2022-09-14T16:34:04.816Z,40.80
2022-09-14T16:36:38.702Z,44.50
2022-09-14T16:39:12.559Z,41.10
2022-09-14T16:41:48.767Z,39.80
2022-09-14T16:44:20.452Z,34.30
2022-09-14T16:46:52.325Z,27.00
2022-09-14T16:49:27.173Z,18.80
2022-09-14T16:52:00.653Z,15.30
2022-09-14T16:54:31.813Z,24.20
2022-09-14T16:57:05.028Z,23.10
2022-09-14T16:59:34.789Z,16.70
2022-09-14T17:02:05.017Z,12.00
2022-09-14T17:04:35.565Z,14.30
2022-09-14T17:07:06.343Z,19.30
2022-09-14T17:09:36.233Z,22.50
2022-09-14T17:12:09.859Z,34.50
2022-09-14T17:14:40.769Z,51.40
2022-09-14T17:17:11.099Z,67.80
2022-09-14T17:19:43.679Z,74.40
2022-09-14T17:22:14.815Z,70.80
2022-09-14T17:24:47.373Z,62.70
2022-09-14T17:27:20.086Z,60.80
2022-09-14T17:29:50.005Z,62.30
2022-09-14T17:32:20.580Z,72.00
2022-09-14T17:34:50.370Z,80.90
2022-09-14T17:37:20.858Z,75.10
2022-09-14T17:39:50.759Z,68.40
2022-09-14T17:42:23.533Z,73.70
2022-09-14T17:44:53.359Z,72.60
2022-09-14T17:47:23.457Z,76.40
2022-09-14T17:49:53.347Z,74.80
2022-09-14T17:52:23.419Z,66.30
2022-09-14T17:54:53.250Z,59.90
2022-09-14T17:57:25.753Z,56.90
2022-09-14T17:59:55.547Z,63.50
2022-09-14T18:02:25.753Z,61.40
2022-09-14T18:04:55.593Z,65.10
2022-09-14T18:07:25.699Z,73.20
2022-09-14T18:09:55.549Z,65.30
2022-09-14T18:12:28.054Z,63.50
2022-09-14T18:14:57.795Z,68.60
2022-09-14T18:17:27.648Z,69.50
2022-09-14T18:19:58.792Z,68.80
2022-09-14T18:22:28.685Z,64.20
2022-09-14T18:24:58.427Z,62.00
2022-09-14T18:27:31.318Z,47.70
2022-09-14T18:30:01.697Z,39.00
2022-09-14T18:32:32.174Z,52.50
2022-09-14T18:35:02.088Z,46.30
2022-09-14T18:37:32.472Z,33.70
2022-09-14T18:40:02.387Z,38.50
2022-09-14T18:42:35.098Z,30.40
2022-09-14T18:45:04.884Z,31.60
2022-09-14T18:47:35.397Z,43.60
2022-09-14T18:50:06.011Z,54.00
2022-09-14T18:52:36.436Z,63.10
2022-09-14T18:55:06.967Z,68.30
2022-09-14T18:57:39.837Z,69.40
2022-09-14T19:00:14.050Z,74.70
2022-09-14T19:02:48.845Z,77.90
2022-09-14T19:05:18.768Z,84.20
2022-09-14T19:07:49.294Z,86.90
2022-09-14T19:10:19.361Z,77.00
2022-09-14T19:12:52.497Z,76.90
2022-09-14T19:15:22.343Z,75.90
2022-09-14T19:17:52.875Z,70.10
2022-09-14T19:20:23.223Z,69.70
2022-09-14T19:22:56.119Z,82.30
2022-09-14T19:25:26.076Z,91.80
2022-09-14T19:27:59.539Z,86.50
2022-09-14T19:30:29.341Z,65.80
2022-09-14T19:32:59.540Z,66.80
2022-09-14T19:35:29.376Z,75.10
2022-09-14T19:38:00.807Z,83.20
2022-09-14T19:40:30.656Z,86.60
2022-09-14T19:43:04.073Z,88.70
2022-09-14T19:45:34.833Z,89.10
2022-09-14T19:48:05.834Z,90.60
2022-09-14T19:50:35.641Z,91.60
2022-09-14T19:53:06.029Z,55.30
2022-09-14T19:55:36.545Z,30.00
2022-09-14T19:58:09.889Z,37.50
2022-09-14T20:00:39.659Z,46.40
2022-09-14T20:03:10.728Z,47.70
2022-09-14T20:05:40.546Z,57.40
2022-09-14T20:08:11.346Z,68.70
2022-09-14T20:10:41.199Z,75.80
2022-09-14T20:13:14.124Z,81.60
2022-09-14T20:15:43.834Z,88.40
2022-09-14T20:18:13.879Z,87.30
2022-09-14T20:20:43.672Z,85.50
2022-09-14T20:23:13.758Z,88.50
2022-09-14T20:25:43.564Z,92.30
2022-09-14T20:28:16.734Z,94.80
2022-09-14T20:30:46.512Z,92.10
2022-09-14T20:33:17.287Z,85.80
2022-09-14T20:35:47.183Z,84.40
2022-09-14T20:38:17.040Z,86.60
2022-09-14T20:40:46.867Z,90.50
2022-09-14T20:43:19.205Z,91.40
2022-09-14T20:45:49.947Z,91.10
2022-09-14T20:48:19.689Z,91.70
2022-09-14T20:50:54.411Z,92.40
2022-09-14T20:53:24.320Z,97.30
2022-09-14T20:55:54.858Z,97.90
2022-09-14T20:58:27.274Z,97.70
2022-09-14T21:01:03.779Z,95.60
2022-09-14T21:03:34.273Z,97.80
2022-09-14T21:06:05.455Z,99.90
2022-09-14T21:08:37.489Z,99.90
2022-09-14T21:11:09.217Z,93.60
2022-09-14T21:13:42.476Z,84.10
2022-09-14T21:16:15.308Z,69.20
2022-09-14T21:18:45.955Z,58.60
2022-09-14T21:21:19.521Z,49.10
2022-09-14T21:23:50.481Z,39.60
2022-09-14T21:26:22.405Z,48.40
2022-09-14T21:28:58.570Z,69.20
2022-09-14T21:31:30.430Z,87.40
2022-09-14T21:34:02.513Z,92.70
2022-09-14T21:36:35.098Z,83.60
2022-09-14T21:39:08.648Z,71.20
2022-09-14T21:41:41.052Z,64.80
2022-09-14T21:44:13.790Z,71.10
2022-09-14T21:46:44.275Z,80.10
2022-09-14T21:49:16.808Z,88.00
2022-09-14T21:51:47.901Z,91.80
2022-09-14T21:54:18.274Z,94.30
2022-09-14T21:56:49.711Z,91.80
2022-09-14T21:59:23.717Z,64.40
2022-09-14T22:01:54.109Z,33.60
2022-09-14T22:04:26.262Z,8.60
2022-09-14T22:06:57.262Z,1.00
2022-09-14T22:09:28.880Z,9.30
2022-09-14T22:11:59.356Z,17.00
2022-09-14T22:14:33.233Z,22.80
2022-09-14T22:17:03.654Z,27.60
2022-09-14T22:19:34.837Z,49.40
2022-09-14T22:22:05.901Z,58.60
2022-09-14T22:24:38.763Z,59.50
2022-09-14T22:27:10.899Z,60.00
2022-09-14T22:29:43.843Z,53.20
2022-09-14T22:32:15.049Z,39.00
2022-09-14T22:34:49.496Z,40.50
2022-09-14T22:37:19.884Z,47.80
2022-09-14T22:39:49.802Z,55.40
2022-09-14T22:42:19.868Z,65.70
2022-09-14T22:44:52.244Z,78.00
2022-09-14T22:47:22.549Z,83.00
2022-09-14T22:49:52.768Z,74.70
2022-09-14T22:52:22.790Z,71.40
2022-09-14T22:54:52.550Z,74.90
2022-09-14T22:57:24.280Z,79.70
2022-09-14T22:59:56.651Z,82.00
2022-09-14T23:02:27.368Z,83.20
2022-09-14T23:04:57.317Z,87.40
2022-09-14T23:07:27.751Z,84.70
2022-09-14T23:09:57.715Z,77.20
2022-09-14T23:12:27.911Z,54.10
2022-09-14T23:15:00.370Z,27.80
2022-09-14T23:17:30.734Z,23.20
2022-09-14T23:20:00.578Z,35.50
2022-09-14T23:22:31.186Z,21.00
2022-09-14T23:25:01.030Z,14.00
2022-09-14T23:27:31.435Z,11.80
2022-09-14T23:30:03.869Z,12.20
2022-09-14T23:32:34.317Z,19.50
2022-09-14T23:35:04.080Z,25.30
2022-09-14T23:37:34.526Z,31.40
2022-09-14T23:40:04.931Z,38.80
2022-09-14T23:42:35.509Z,28.40
2022-09-14T23:45:09.228Z,21.40
2022-09-14T23:47:39.528Z,4.60
2022-09-14T23:50:10.736Z,1.00
2022-09-14T23:52:41.127Z,1.00
2022-09-14T23:55:11.979Z,1.00
2022-09-14T23:57:42.424Z,1.00
